Aérodrome :
LOGIN :

S'inscrire | Disclaimer

   EN    FR    IT 

 










Légende :    VFR   VFR Marginal   IFR   IFR Intensif   IFR Très Intensif
Visi : 
Plafond : 
>= 8 km
>= 3000ft
5 à 8 km
1000 à 3000 ft
1500m à 5 km
500 à 1000 ft
800 à 1500m
200 à 500 ft
< 800m
< 200 ft
Symboles :   Orages  Brouillard  Fortes neiges  Fortes précipitations  Vent > 20 kt
SIGMETs :   Divers  Orages  Givrage  Turbulence  Onde Orograph.  Cendres Volcan.







- Altitude de l'aérodrome : -11 ft
- Code IATA : AMS


EHAM - Amsterdam Schiphol

METARs EXPIRÉS :
  • 241425Z 24017KT 9999 SCT015 SCT040 BKN045 20/15 Q1013 NOSIG
  • 241355Z 25018KT 9999 SCT016 SCT037 BKN047 20/15 Q1013 NOSIG
  • 241325Z 25017KT 9999 SCT015 BKN048 20/16 Q1013 NOSIG
  • 241255Z 24016KT 210V280 9999 SCT016 BKN042 19/15 Q1013 NOSIG
  • 241225Z 24018KT 210V280 9999 SCT015 SCT022 BKN035 19/15 Q1013 NOSIG
  • 241155Z 25018KT 220V280 9999 FEW014 SCT016 BKN025 19/16 Q1013 NOSIG

Prévision TAF périmée.
Pas de NOTAMs connus pour ce terrain.



MET'MAP, la Météo Aéronautique d'un coup d'oeil ! - Copyright ORBIFLY Décembre 2007 - Disclaimer

ORBIFLY MET'MAP TEAM :

Programmation & Développement : Alexandra Zaïnal
Conception & Développement : Baudouin d'Aumeries
Co-Programmation & Développement : Marc-Olivier Méhu
Soutien technique & logistique : Manuel Goepfert

Contact : metmap@orbifly.com




SOURCES & CREDITS :

   NOAA